Time;durP1;ratioP1;P1;durP2;ratioP2;P2;SDS_P1;SDS_P2;PMS_P1;PMS_P2;Temp;Humidity;BMP_temperature;BMP_pressure;BME280_temperature;BME280_humidity;BME280_pressure;Samples;Min_cycle;Max_cycle;Signal;HPM_P1;HPM_P2
2022/02/28 00:00:28;;;;;;;0.63;0.63;;;;;;;8.10;100.00;100448.50;5032296;28;20059;-83
2022/02/28 00:02:54;;;;;;;0.40;0.40;;;;;;;8.05;100.00;100427.56;5029218;28;22767;-82
2022/02/28 00:05:19;;;;;;;0.73;0.73;;;;;;;8.08;100.00;100437.94;5039305;28;20036;-81
2022/02/28 00:07:45;;;;;;;0.50;0.50;;;;;;;8.09;100.00;100463.69;5043852;28;20033;-81
2022/02/28 00:10:11;;;;;;;0.40;0.40;;;;;;;8.07;100.00;100454.16;5043376;28;20032;-83
2022/02/28 00:12:37;;;;;;;0.50;0.50;;;;;;;8.10;100.00;100456.53;5059614;28;20042;-82
2022/02/28 00:15:05;;;;;;;0.47;0.47;;;;;;;8.05;100.00;100469.59;5030441;28;20467;-82
2022/02/28 00:17:30;;;;;;;0.50;0.50;;;;;;;8.02;100.00;100460.03;5057315;28;20094;-82
2022/02/28 00:19:56;;;;;;;0.70;0.60;;;;;;;8.02;100.00;100453.81;5040086;28;20036;-82
2022/02/28 00:22:21;;;;;;;0.50;0.50;;;;;;;7.84;100.00;100430.75;5058456;28;20474;-82
2022/02/28 00:24:47;;;;;;;0.40;0.40;;;;;;;8.00;100.00;100455.84;5028783;28;20135;-82
2022/02/28 00:27:14;;;;;;;0.40;0.40;;;;;;;8.09;100.00;100470.91;5023738;28;20048;-82
2022/02/28 00:29:39;;;;;;;0.40;0.40;;;;;;;8.07;100.00;100465.72;5039084;28;20390;-81
2022/02/28 00:32:05;;;;;;;0.40;0.40;;;;;;;8.09;100.00;100465.56;5043258;28;20045;-80
2022/02/28 00:34:32;;;;;;;0.40;0.40;;;;;;;8.05;100.00;100469.59;5034894;28;20032;-83
2022/02/28 00:37:00;;;;;;;0.40;0.40;;;;;;;8.01;100.00;100457.50;5049093;28;20036;-81
2022/02/28 00:39:27;;;;;;;0.40;0.40;;;;;;;8.03;100.00;100466.22;5046969;28;20140;-83
2022/02/28 00:41:52;;;;;;;0.43;0.43;;;;;;;7.91;100.00;100449.63;5057315;28;20032;-82
2022/02/28 00:44:18;;;;;;;0.40;0.40;;;;;;;7.84;100.00;100454.84;5048970;28;20032;-83
2022/02/28 00:46:44;;;;;;;0.32;0.32;;;;;;;7.76;100.00;100452.16;5060777;28;20469;-81
2022/02/28 00:49:10;;;;;;;0.40;0.40;;;;;;;7.63;100.00;100438.41;5033998;28;20032;-81
2022/02/28 00:51:35;;;;;;;0.40;0.40;;;;;;;7.65;100.00;100441.75;5056007;28;20028;-81
2022/02/28 00:54:01;;;;;;;0.40;0.40;;;;;;;7.65;100.00;100455.97;5029208;28;20485;-83
2022/02/28 00:56:27;;;;;;;0.40;0.40;;;;;;;7.72;100.00;100469.53;5047073;28;20432;-82
2022/02/28 00:58:52;;;;;;;0.40;0.40;;;;;;;7.64;100.00;100458.81;5028654;28;20426;-83
2022/02/28 01:01:18;;;;;;;0.40;0.40;;;;;;;7.58;100.00;100451.44;5048123;28;20382;-80
2022/02/28 01:03:43;;;;;;;0.40;0.40;;;;;;;7.56;100.00;100456.94;5027641;28;20036;-83
2022/02/28 01:06:09;;;;;;;0.30;0.30;;;;;;;7.46;100.00;100440.19;5052838;28;20051;-82
2022/02/28 01:08:35;;;;;;;0.40;0.40;;;;;;;7.37;100.00;100439.34;5065190;28;20044;-83
2022/02/28 01:11:00;;;;;;;0.40;0.40;;;;;;;7.45;100.00;100452.75;5031119;28;20050;-82
2022/02/28 01:13:26;;;;;;;0.40;0.40;;;;;;;7.56;100.00;100469.50;5058417;28;20027;-82
2022/02/28 01:15:52;;;;;;;0.40;0.40;;;;;;;7.56;100.00;100477.50;5063641;28;20093;-82
2022/02/28 01:18:18;;;;;;;0.40;0.40;;;;;;;7.43;100.00;100468.09;5065451;28;20490;-83
2022/02/28 01:20:44;;;;;;;0.40;0.40;;;;;;;7.38;100.00;100451.72;5044193;28;20127;-81
2022/02/28 01:23:10;;;;;;;0.40;0.40;;;;;;;7.55;100.00;100478.53;5042008;28;20036;-82
2022/02/28 01:25:35;;;;;;;0.40;0.40;;;;;;;7.53;100.00;100481.34;5045483;28;20091;-82
2022/02/28 01:28:01;;;;;;;0.40;0.40;;;;;;;7.54;100.00;100490.22;5035389;28;20085;-82
2022/02/28 01:30:27;;;;;;;0.40;0.40;;;;;;;7.52;100.00;100490.41;5044845;28;20025;-80
2022/02/28 01:32:53;;;;;;;0.40;0.40;;;;;;;7.45;100.00;100484.84;5056173;28;20391;-83
2022/02/28 01:35:24;;;;;;;0.40;0.40;;;;;;;7.38;100.00;100470.47;5028211;28;20028;-82
2022/02/28 01:37:59;;;;;;;0.40;0.40;;;;;;;7.41;100.00;100478.16;5047852;28;20051;-83
2022/02/28 01:40:25;;;;;;;0.40;0.40;;;;;;;7.58;100.00;100499.59;5031947;28;20063;-82
2022/02/28 01:42:51;;;;;;;0.40;0.40;;;;;;;7.60;100.00;100513.66;5044214;28;20111;-81
2022/02/28 01:45:23;;;;;;;0.40;0.40;;;;;;;7.47;100.00;100492.72;5032962;28;20044;-81
2022/02/28 01:47:50;;;;;;;0.40;0.40;;;;;;;7.39;100.00;100471.28;5066862;28;20047;-82
2022/02/28 01:50:16;;;;;;;0.40;0.40;;;;;;;7.60;100.00;100513.66;5033955;28;20029;-82
2022/02/28 01:52:41;;;;;;;0.40;0.40;;;;;;;7.66;100.00;100529.88;5050119;28;20051;-82
2022/02/28 01:55:09;;;;;;;0.45;0.45;;;;;;;7.68;100.00;100530.56;5028455;28;20043;-83
2022/02/28 01:57:34;;;;;;;0.40;0.40;;;;;;;7.62;100.00;100525.03;5061993;28;20033;-82
2022/02/28 02:00:00;;;;;;;0.40;0.40;;;;;;;7.57;100.00;100520.19;5035356;28;20284;-82
2022/02/28 02:02:26;;;;;;;0.40;0.40;;;;;;;7.65;100.00;100516.69;5032458;28;20043;-82
2022/02/28 02:04:52;;;;;;;0.40;0.40;;;;;;;7.57;100.00;100503.25;5045946;28;20032;-83
2022/02/28 02:07:17;;;;;;;0.40;0.40;;;;;;;7.63;100.00;100527.53;5032668;28;20093;-81
2022/02/28 02:09:43;;;;;;;0.40;0.40;;;;;;;7.59;100.00;100526.19;5062973;28;20493;-80
2022/02/28 02:12:09;;;;;;;0.40;0.40;;;;;;;7.56;100.00;100523.00;5044632;28;20039;-81
2022/02/28 02:14:36;;;;;;;0.40;0.40;;;;;;;7.42;100.00;100508.41;5051323;28;20497;-81
2022/02/28 02:17:02;;;;;;;0.30;0.30;;;;;;;7.58;100.00;100540.56;5047536;28;20028;-81
2022/02/28 02:19:27;;;;;;;0.40;0.40;;;;;;;7.65;100.00;100536.25;5049958;28;20045;-82
2022/02/28 02:21:53;;;;;;;0.40;0.40;;;;;;;7.65;100.00;100532.75;5045369;28;20037;-82
2022/02/28 02:24:19;;;;;;;0.40;0.40;;;;;;;7.67;100.00;100544.97;5031127;28;20382;-81
2022/02/28 02:26:44;;;;;;;0.40;0.40;;;;;;;7.65;100.00;100532.75;5043550;28;20123;-81
2022/02/28 02:29:10;;;;;;;0.40;0.40;;;;;;;7.74;100.00;100541.63;5045840;28;20193;-81
2022/02/28 02:31:36;;;;;;;0.40;0.40;;;;;;;7.84;100.00;100564.59;5063042;28;20363;-81
2022/02/28 02:34:01;;;;;;;0.32;0.32;;;;;;;7.84;100.00;100567.25;5059830;28;20037;-83
2022/02/28 02:36:28;;;;;;;0.40;0.40;;;;;;;7.91;100.00;100586.16;5027632;28;20037;-81
2022/02/28 02:38:54;;;;;;;0.40;0.40;;;;;;;7.93;100.00;100579.66;5056654;28;20505;-81
2022/02/28 02:41:20;;;;;;;0.40;0.40;;;;;;;7.86;100.00;100562.59;5040268;28;20045;-85
2022/02/28 02:43:46;;;;;;;0.40;0.40;;;;;;;7.89;100.00;100575.63;5056002;28;20489;-82
2022/02/28 02:46:12;;;;;;;0.40;0.40;;;;;;;7.87;100.00;100574.97;5042414;28;20158;-81
2022/02/28 02:48:37;;;;;;;0.40;0.40;;;;;;;7.92;100.00;100566.44;5043293;28;20115;-83
2022/02/28 02:51:03;;;;;;;0.40;0.40;;;;;;;7.82;100.00;100563.91;5058029;28;20033;-80
2022/02/28 02:53:29;;;;;;;0.40;0.40;;;;;;;7.80;100.00;100565.88;5043858;28;20040;-82
2022/02/28 02:55:54;;;;;;;0.40;0.40;;;;;;;7.81;100.00;100572.09;5052379;28;20047;-82
2022/02/28 02:58:21;;;;;;;0.40;0.40;;;;;;;7.88;100.00;100590.00;5035245;28;20035;-81
2022/02/28 03:00:49;;;;;;;0.40;0.40;;;;;;;7.88;100.00;100603.38;5049798;28;20047;-82
2022/02/28 03:03:17;;;;;;;0.50;0.50;;;;;;;7.86;100.00;100607.25;5073636;28;20486;-83
2022/02/28 03:05:43;;;;;;;0.40;0.40;;;;;;;7.75;100.00;100597.66;5066653;28;20478;-82
2022/02/28 03:08:08;;;;;;;0.40;0.40;;;;;;;7.83;100.00;100605.75;5031841;28;20029;-82
2022/02/28 03:10:34;;;;;;;0.40;0.40;;;;;;;7.81;100.00;100604.22;5042969;28;20029;-84
2022/02/28 03:13:00;;;;;;;0.40;0.40;;;;;;;7.72;100.00;100588.09;5030444;28;20166;-83
2022/02/28 03:15:26;;;;;;;0.45;0.45;;;;;;;7.65;100.00;100587.09;5034775;28;20122;-82
2022/02/28 03:17:51;;;;;;;0.40;0.40;;;;;;;7.63;100.00;100601.63;5050287;28;20036;-82
2022/02/28 03:20:17;;;;;;;0.40;0.40;;;;;;;7.57;100.00;100612.97;5045182;28;20129;-82
2022/02/28 03:22:45;;;;;;;0.40;0.40;;;;;;;7.49;100.00;100603.09;5057250;28;20031;-82
2022/02/28 03:25:11;;;;;;;0.40;0.40;;;;;;;7.26;100.00;100578.72;5046812;28;20096;-82
2022/02/28 03:27:37;;;;;;;0.40;0.40;;;;;;;7.31;100.00;100596.97;5028972;28;20024;-82
2022/02/28 03:30:05;;;;;;;0.40;0.40;;;;;;;7.26;100.00;100600.09;5057350;28;20025;-84
2022/02/28 03:32:31;;;;;;;0.40;0.40;;;;;;;7.23;100.00;100603.09;5045134;28;20036;-84
2022/02/28 03:34:56;;;;;;;0.40;0.40;;;;;;;7.13;100.00;100600.53;5059953;28;20035;-81
2022/02/28 03:37:22;;;;;;;0.40;0.40;;;;;;;7.06;100.00;100607.50;5040487;28;20036;-82
2022/02/28 03:39:48;;;;;;;0.40;0.40;;;;;;;6.94;100.00;100592.72;5025951;28;20047;-84
2022/02/28 03:42:14;;;;;;;0.40;0.40;;;;;;;7.05;100.00;100619.19;5023602;28;20037;-83
2022/02/28 03:44:40;;;;;;;0.30;0.30;;;;;;;6.96;100.00;100612.09;5058500;28;20475;-81
2022/02/28 03:47:06;;;;;;;0.40;0.40;;;;;;;6.95;100.00;100629.13;5046265;28;20553;-85
2022/02/28 03:49:32;;;;;;;0.40;0.40;;;;;;;6.92;100.00;100632.97;5045831;28;20557;-82
2022/02/28 03:51:57;;;;;;;0.40;0.40;;;;;;;6.82;100.00;100611.66;5030446;28;20036;-82
2022/02/28 03:54:23;;;;;;;0.40;0.40;;;;;;;6.92;100.00;100626.78;5044732;28;20436;-83
2022/02/28 03:56:49;;;;;;;0.40;0.40;;;;;;;6.91;100.00;100631.28;5039348;28;20025;-82
2022/02/28 03:59:15;;;;;;;0.68;0.68;;;;;;;6.89;100.00;100633.28;5059137;28;20020;-84
2022/02/28 04:01:40;;;;;;;0.40;0.40;;;;;;;6.81;100.00;100628.69;5031170;28;20039;-82
2022/02/28 04:04:07;;;;;;;0.40;0.40;;;;;;;6.79;100.00;100632.50;5056617;28;20024;-82
2022/02/28 04:06:35;;;;;;;0.40;0.40;;;;;;;6.77;100.00;100622.00;5065177;28;20369;-82
2022/02/28 04:09:02;;;;;;;0.40;0.40;;;;;;;6.75;100.00;100609.78;5029663;28;20481;-83
2022/02/28 04:11:28;;;;;;;0.40;0.40;;;;;;;6.74;100.00;100624.94;5047471;28;20513;-82
2022/02/28 04:13:54;;;;;;;0.40;0.40;;;;;;;6.64;100.00;100601.97;5042834;28;20021;-82
2022/02/28 04:16:20;;;;;;;0.40;0.40;;;;;;;6.82;100.00;100622.34;5029093;28;20040;-82
2022/02/28 04:18:45;;;;;;;0.40;0.40;;;;;;;6.94;100.00;100636.31;5043257;28;20077;-82
2022/02/28 04:21:11;;;;;;;0.40;0.40;;;;;;;6.98;100.00;100656.38;5058661;28;20056;-84
2022/02/28 04:23:37;;;;;;;0.40;0.40;;;;;;;6.98;100.00;100663.56;5063841;28;20028;-82
2022/02/28 04:26:03;;;;;;;0.40;0.40;;;;;;;7.02;100.00;100687.16;5024227;28;20036;-81
2022/02/28 04:28:28;;;;;;;0.40;0.40;;;;;;;6.85;100.00;100657.78;5060786;28;20459;-81
2022/02/28 04:30:54;;;;;;;0.70;0.70;;;;;;;6.99;100.00;100689.31;5048266;28;20060;-82
2022/02/28 04:33:20;;;;;;;0.50;0.50;;;;;;;7.06;100.00;100695.72;5046271;28;20124;-81
2022/02/28 04:35:46;;;;;;;0.40;0.40;;;;;;;7.05;100.00;100697.56;5047774;28;20082;-81
2022/02/28 04:38:12;;;;;;;0.40;0.40;;;;;;;7.00;100.00;100682.97;5029368;28;20410;-84
2022/02/28 04:40:37;;;;;;;0.40;0.40;;;;;;;7.05;100.00;100712.75;5061231;28;20492;-83
2022/02/28 04:43:03;;;;;;;0.40;0.40;;;;;;;6.97;100.00;100705.50;5044052;28;20021;-84
2022/02/28 04:45:29;;;;;;;0.40;0.40;;;;;;;6.98;100.00;100703.66;5060586;28;20040;-82
2022/02/28 04:47:55;;;;;;;0.40;0.40;;;;;;;6.87;100.00;100688.72;5064445;28;20032;-82
2022/02/28 04:50:20;;;;;;;0.40;0.40;;;;;;;6.94;100.00;100697.81;5042683;28;20052;-81
2022/02/28 04:52:46;;;;;;;0.40;0.40;;;;;;;6.70;100.00;100646.81;5061555;28;20447;-82
2022/02/28 04:55:12;;;;;;;0.40;0.40;;;;;;;6.93;100.00;100690.78;5043948;28;20039;-81
2022/02/28 04:57:39;;;;;;;0.40;0.40;;;;;;;6.84;100.00;100689.03;5045441;28;20013;-82
2022/02/28 05:00:06;;;;;;;0.43;0.43;;;;;;;6.85;100.00;100709.41;5051009;28;20037;-81
2022/02/28 05:02:32;;;;;;;0.40;0.40;;;;;;;6.81;100.00;100716.06;5051707;28;20040;-83
2022/02/28 05:04:57;;;;;;;0.40;0.40;;;;;;;6.67;100.00;100696.06;5048018;28;20394;-81
2022/02/28 05:07:23;;;;;;;0.40;0.40;;;;;;;6.63;100.00;100709.84;5058862;28;20057;-84
2022/02/28 05:09:48;;;;;;;0.40;0.40;;;;;;;6.44;100.00;100702.81;5067872;28;20067;-81
2022/02/28 05:12:14;;;;;;;0.40;0.40;;;;;;;6.47;100.00;100735.41;5039558;28;20040;-84
2022/02/28 05:14:40;;;;;;;0.40;0.40;;;;;;;6.36;100.00;100727.59;5046165;28;20497;-83
2022/02/28 05:17:06;;;;;;;0.50;0.50;;;;;;;6.37;100.00;100739.94;5050468;28;20032;-83
2022/02/28 05:19:31;;;;;;;0.40;0.40;;;;;;;6.38;100.00;100733.63;5050144;28;20040;-83
2022/02/28 05:21:57;;;;;;;0.40;0.40;;;;;;;6.33;100.00;100733.25;5032226;28;20043;-82
2022/02/28 05:24:23;;;;;;;0.40;0.40;;;;;;;6.41;100.00;100738.69;5034344;28;20137;-84
2022/02/28 05:26:49;;;;;;;0.50;0.50;;;;;;;6.42;100.00;100745.69;5060466;28;20033;-82
2022/02/28 05:29:14;;;;;;;0.40;0.40;;;;;;;6.43;100.00;100752.72;5064457;28;20056;-81
2022/02/28 05:31:40;;;;;;;0.40;0.40;;;;;;;6.38;100.00;100742.50;5047934;28;20500;-83
2022/02/28 05:34:06;;;;;;;0.40;0.40;;;;;;;6.36;100.00;100754.31;5030646;28;20124;-83
2022/02/28 05:36:32;;;;;;;0.40;0.40;;;;;;;6.50;100.00;100780.50;5041498;28;20523;-83
2022/02/28 05:38:57;;;;;;;0.40;0.40;;;;;;;6.46;100.00;100786.31;5030426;28;20553;-82
2022/02/28 05:41:23;;;;;;;0.40;0.40;;;;;;;6.43;100.00;100770.56;5059322;28;20056;-81
2022/02/28 05:43:49;;;;;;;0.40;0.40;;;;;;;6.41;100.00;100769.91;5047206;28;20355;-83
2022/02/28 05:46:15;;;;;;;0.40;0.40;;;;;;;6.45;100.00;100761.41;5030994;28;20033;-81
2022/02/28 05:48:41;;;;;;;0.50;0.50;;;;;;;6.36;100.00;100763.16;5060032;28;20086;-81
2022/02/28 05:51:06;;;;;;;0.45;0.45;;;;;;;6.33;100.00;100775.97;5034486;28;20398;-83
2022/02/28 05:53:32;;;;;;;0.40;0.40;;;;;;;6.33;100.00;100786.66;5032817;28;20533;-83
2022/02/28 05:55:58;;;;;;;0.40;0.40;;;;;;;6.24;100.00;100772.34;5035582;28;20054;-81
2022/02/28 05:58:24;;;;;;;0.50;0.50;;;;;;;6.23;100.00;100780.50;5057704;28;20035;-82
2022/02/28 06:00:49;;;;;;;0.93;0.85;;;;;;;6.13;100.00;100773.38;5033721;28;20028;-81
2022/02/28 06:03:15;;;;;;;0.40;0.40;;;;;;;6.20;100.00;100786.97;5030282;28;20040;-82
2022/02/28 06:05:41;;;;;;;0.40;0.40;;;;;;;6.23;100.00;100801.88;5051114;28;20037;-82
2022/02/28 06:08:06;;;;;;;0.50;0.50;;;;;;;6.19;100.00;100781.78;5046163;28;20623;-84
2022/02/28 06:10:32;;;;;;;0.40;0.40;;;;;;;6.14;100.00;100777.72;5054516;28;20117;-81
2022/02/28 06:12:58;;;;;;;0.70;0.70;;;;;;;5.86;100.00;100736.78;5036916;28;20537;-82
2022/02/28 06:28:50;;;;;;;0.40;0.40;;;;;;;5.85;100.00;100795.66;5063568;28;20038;-83
2022/02/28 06:31:16;;;;;;;0.47;0.47;;;;;;;5.90;100.00;100804.03;5064102;28;20051;-82
2022/02/28 06:33:44;;;;;;;0.40;0.40;;;;;;;5.96;100.00;100816.00;5051228;28;20056;-81
2022/02/28 06:36:10;;;;;;;0.40;0.40;;;;;;;5.96;100.00;100816.84;5033686;28;20064;-80
2022/02/28 06:38:37;;;;;;;0.40;0.40;;;;;;;6.08;100.00;100837.03;5079807;28;20090;-81
2022/02/28 06:41:02;;;;;;;0.40;0.40;;;;;;;6.10;100.00;100840.41;5056964;28;20109;-81
2022/02/28 06:43:28;;;;;;;0.50;0.50;;;;;;;6.08;100.00;100839.69;5058011;28;20068;-81
2022/02/28 06:45:54;;;;;;;0.40;0.40;;;;;;;5.90;100.00;100820.91;5048200;28;20037;-80
2022/02/28 06:48:20;;;;;;;0.40;0.40;;;;;;;5.73;100.00;100795.78;5034639;28;20043;-82
2022/02/28 06:50:46;;;;;;;0.50;0.50;;;;;;;5.91;100.00;100851.09;5050825;28;20025;-81
2022/02/28 06:53:18;;;;;;;0.55;0.55;;;;;;;5.77;100.00;100832.84;5064610;28;20051;-82
2022/02/28 06:55:45;;;;;;;0.60;0.60;;;;;;;5.77;100.00;100851.53;5032512;28;20036;-81
2022/02/28 06:58:10;;;;;;;0.47;0.47;;;;;;;5.81;100.00;100866.28;5064223;28;20787;-82
2022/02/28 07:00:36;;;;;;;0.40;0.40;;;;;;;5.70;100.00;100848.59;5046969;28;20044;-81
2022/02/28 07:03:02;;;;;;;0.50;0.50;;;;;;;5.65;100.00;100848.19;5052067;28;20037;-80
2022/02/28 07:05:28;;;;;;;0.50;0.50;;;;;;;5.75;100.00;100878.38;5053158;28;20498;-81
2022/02/28 07:07:53;;;;;;;0.40;0.40;;;;;;;5.61;100.00;100860.97;5069773;28;20489;-83
2022/02/28 07:10:21;;;;;;;0.40;0.40;;;;;;;5.79;100.00;100892.25;5049490;28;20110;-81
2022/02/28 07:12:46;;;;;;;0.45;0.45;;;;;;;5.77;100.00;100891.53;5048328;28;20115;-83
2022/02/28 07:15:12;;;;;;;0.50;0.50;;;;;;;5.62;100.00;100877.81;5066561;28;20111;-82
2022/02/28 07:17:38;;;;;;;0.40;0.40;;;;;;;5.64;100.00;100886.53;5044995;28;20032;-84
2022/02/28 07:20:04;;;;;;;0.40;0.40;;;;;;;5.52;100.00;100885.81;5046089;28;20093;-81
2022/02/28 07:22:29;;;;;;;0.50;0.50;;;;;;;5.41;100.00;100888.59;5045773;28;20032;-81
2022/02/28 07:24:55;;;;;;;0.40;0.40;;;;;;;5.29;100.00;100887.88;5054486;28;20021;-82
2022/02/28 07:27:20;;;;;;;0.40;0.40;;;;;;;5.46;100.00;100919.22;5042708;28;20045;-81
2022/02/28 07:29:46;;;;;;;0.50;0.50;;;;;;;5.35;100.00;100914.00;5042880;28;20048;-82
2022/02/28 07:32:12;;;;;;;0.55;0.55;;;;;;;5.40;100.00;100922.44;5058440;28;20028;-81
2022/02/28 07:34:37;;;;;;;0.50;0.50;;;;;;;5.40;100.00;100926.91;5056125;28;20377;-82
2022/02/28 07:37:03;;;;;;;0.47;0.47;;;;;;;5.31;100.00;100919.75;5044222;28;20020;-83
2022/02/28 07:39:29;;;;;;;0.57;0.57;;;;;;;5.29;100.00;100927.88;5023709;28;20036;-81
2022/02/28 07:41:58;;;;;;;0.50;0.50;;;;;;;5.33;100.00;100947.97;5067731;28;20089;-82
2022/02/28 07:44:24;;;;;;;0.40;0.40;;;;;;;5.27;100.00;100936.03;5058220;28;20032;-82
2022/02/28 07:46:52;;;;;;;0.85;0.60;;;;;;;5.37;100.00;100961.84;5051315;28;20029;-83
2022/02/28 07:49:18;;;;;;;0.40;0.40;;;;;;;5.37;100.00;100948.53;5046314;28;20040;-81
2022/02/28 07:51:43;;;;;;;0.50;0.50;;;;;;;5.41;100.00;100947.28;5033098;28;20081;-83
2022/02/28 07:54:10;;;;;;;0.50;0.50;;;;;;;5.51;100.00;100961.47;5055495;28;20029;-83
2022/02/28 07:56:35;;;;;;;1.13;0.73;;;;;;;5.39;100.00;100943.91;5061703;28;20116;-81
2022/02/28 07:59:01;;;;;;;0.40;0.40;;;;;;;5.55;100.00;100956.69;5047527;28;20040;-80
2022/02/28 08:01:27;;;;;;;0.40;0.40;;;;;;;5.46;100.00;100937.88;5033443;28;20051;-82
2022/02/28 08:03:52;;;;;;;2.00;1.38;;;;;;;5.70;100.00;100979.31;5051280;28;20462;-84
2022/02/28 08:06:18;;;;;;;0.98;0.98;;;;;;;5.66;100.00;100973.44;5059276;28;20074;-82
2022/02/28 08:08:44;;;;;;;0.50;0.50;;;;;;;5.72;100.00;100988.88;5039460;28;20032;-80
2022/02/28 08:11:10;;;;;;;0.55;0.55;;;;;;;5.66;100.00;100980.56;5033154;28;20386;-82
2022/02/28 08:13:35;;;;;;;1.05;1.05;;;;;;;5.82;100.00;101009.38;5059870;28;20037;-81
2022/02/28 08:16:01;;;;;;;0.65;0.65;;;;;;;5.71;100.00;100992.50;5034734;28;20517;-82
2022/02/28 08:18:27;;;;;;;0.50;0.50;;;;;;;5.83;100.00;100998.56;5068976;28;20033;-82
2022/02/28 08:20:53;;;;;;;2.58;2.38;;;;;;;5.94;100.00;101008.31;5051796;28;20128;-81
2022/02/28 08:23:19;;;;;;;0.40;0.40;;;;;;;5.99;100.00;101014.06;5063040;28;20123;-81
2022/02/28 08:25:45;;;;;;;0.75;0.60;;;;;;;5.98;100.00;101007.06;5052263;28;20032;-82
2022/02/28 08:28:12;;;;;;;0.40;0.40;;;;;;;6.02;100.00;101011.13;5058547;28;20636;-80
2022/02/28 08:30:38;;;;;;;0.40;0.40;;;;;;;5.91;100.00;100995.22;5053189;28;20040;-83
2022/02/28 08:33:04;;;;;;;0.43;0.43;;;;;;;5.97;100.00;101015.19;5031550;28;20379;-81
2022/02/28 08:35:30;;;;;;;0.50;0.50;;;;;;;5.98;100.00;101015.06;5045416;28;20094;-81
2022/02/28 08:38:01;;;;;;;0.50;0.50;;;;;;;5.90;100.00;101001.53;5047510;28;20127;-81
2022/02/28 08:40:27;;;;;;;0.40;0.40;;;;;;;5.89;100.00;101010.50;5064210;28;20029;-80
2022/02/28 08:42:52;;;;;;;1.70;1.60;;;;;;;5.89;100.00;101008.69;5055084;28;20035;-81
2022/02/28 08:45:18;;;;;;;1.05;1.05;;;;;;;5.91;100.00;101016.56;5032863;28;20075;-81
2022/02/28 08:47:43;;;;;;;0.95;0.73;;;;;;;5.91;100.00;101019.25;5035950;28;20041;-82
2022/02/28 08:50:10;;;;;;;0.70;0.70;;;;;;;5.84;100.00;101010.94;5035415;28;20043;-81
2022/02/28 08:52:36;;;;;;;1.02;1.02;;;;;;;5.95;100.00;101031.34;5051879;28;20041;-81
2022/02/28 08:55:03;;;;;;;1.15;1.15;;;;;;;6.05;100.00;101039.38;5035265;28;20055;-80
2022/02/28 08:57:29;;;;;;;4.70;3.30;;;;;;;6.07;100.00;101037.41;5041633;28;20357;-81
2022/02/28 08:59:55;;;;;;;1.08;1.08;;;;;;;6.08;100.00;101044.41;5068158;28;20059;-81
2022/02/28 09:02:20;;;;;;;0.98;0.98;;;;;;;6.06;100.00;101030.34;5043197;28;20083;-81
2022/02/28 09:04:46;;;;;;;11.15;2.15;;;;;;;6.14;100.00;101052.72;5052163;28;20147;-81
2022/02/28 09:07:12;;;;;;;1.25;1.17;;;;;;;6.19;100.00;101051.44;5067108;28;20032;-83
2022/02/28 09:09:38;;;;;;;8.18;1.35;;;;;;;6.26;100.00;101055.25;5053456;28;20063;-81
2022/02/28 09:12:04;;;;;;;0.40;0.40;;;;;;;6.30;100.00;101056.66;5034407;28;20039;-81
2022/02/28 09:14:30;;;;;;;0.70;0.70;;;;;;;6.24;100.00;101035.84;5053836;28;20047;-81
2022/02/28 09:16:55;;;;;;;0.50;0.50;;;;;;;6.35;100.00;101054.38;5050543;28;20187;-80
2022/02/28 09:19:21;;;;;;;0.85;0.85;;;;;;;6.36;100.00;101061.44;5047156;28;20461;-83
2022/02/28 09:22:00;;;;;;;0.90;0.90;;;;;;;6.22;100.00;101036.00;5051440;28;20127;-82
2022/02/28 09:24:28;;;;;;;0.70;0.70;;;;;;;6.42;100.00;101079.56;5047827;28;20059;-82
2022/02/28 09:26:55;;;;;;;0.40;0.40;;;;;;;6.36;100.00;101077.47;5034184;28;20031;-81
2022/02/28 09:29:21;;;;;;;0.60;0.60;;;;;;;6.42;100.00;101065.38;5052349;28;20033;-80
2022/02/28 09:31:47;;;;;;;0.88;0.88;;;;;;;6.62;100.00;101090.25;5048101;28;20040;-83
2022/02/28 09:34:13;;;;;;;0.85;0.85;;;;;;;6.60;100.00;101080.53;5032009;28;20799;-82
2022/02/28 09:36:41;;;;;;;2.67;1.38;;;;;;;6.67;100.00;101096.00;5049254;28;20189;-80
2022/02/28 09:39:07;;;;;;;0.55;0.55;;;;;;;6.70;100.00;101104.59;5065594;28;20119;-81
2022/02/28 09:41:33;;;;;;;0.40;0.40;;;;;;;6.54;100.00;101082.94;5033843;28;20119;-82
2022/02/28 09:43:59;;;;;;;0.50;0.50;;;;;;;6.65;100.00;101111.34;5052256;28;20455;-83
2022/02/28 09:46:25;;;;;;;0.68;0.68;;;;;;;6.69;100.00;101118.06;5064941;28;20033;-81
2022/02/28 09:49:16;;;;;;;3.47;1.90;;;;;;;6.65;100.00;101116.69;5048519;28;20044;-81
2022/02/28 09:51:42;;;;;;;0.65;0.65;;;;;;;6.67;100.00;101136.06;5050850;28;20055;-81
2022/02/28 09:54:08;;;;;;;1.77;1.05;;;;;;;6.71;100.00;101150.84;5033854;28;20032;-81
2022/02/28 09:56:34;;;;;;;0.73;0.73;;;;;;;6.72;100.00;101145.38;5064396;28;20481;-82
2022/02/28 09:59:00;;;;;;;2.70;1.15;;;;;;;6.72;100.00;101149.84;5033264;28;20047;-82
2022/02/28 10:01:26;;;;;;;0.93;0.80;;;;;;;6.78;100.00;101160.84;5051897;28;20040;-81
2022/02/28 10:03:52;;;;;;;0.57;0.57;;;;;;;6.83;100.00;101155.91;5067028;28;20051;-81
2022/02/28 10:06:18;;;;;;;2.13;1.15;;;;;;;6.63;100.00;101119.50;5052054;28;20048;-82
2022/02/28 10:08:46;;;;;;;1.33;1.23;;;;;;;7.05;100.00;101178.81;5048253;28;20106;-81
2022/02/28 10:11:32;;;;;;;0.47;0.47;;;;;;;7.21;100.00;101188.94;5035724;28;20048;-81
2022/02/28 10:14:00;;;;;;;0.75;0.75;;;;;;;7.25;100.00;101178.78;5038849;28;20380;-83
2022/02/28 10:16:31;;;;;;;1.88;0.90;;;;;;;7.25;100.00;101187.66;5036268;28;20097;-81
2022/02/28 10:18:57;;;;;;;7.53;1.00;;;;;;;7.37;100.00;101206.22;5062501;28;20047;-81
2022/02/28 10:21:43;;;;;;;12.68;1.23;;;;;;;7.39;100.00;101212.28;5058103;28;20028;-82
2022/02/28 10:24:10;;;;;;;7.05;1.75;;;;;;;7.40;100.00;101216.63;5063904;28;20037;-80
2022/02/28 10:26:44;;;;;;;13.48;1.88;;;;;;;7.37;100.00;101211.56;5063537;28;20510;-81
2022/02/28 10:29:12;;;;;;;11.05;2.17;;;;;;;7.48;100.00;101217.59;5069928;28;20074;-82
2022/02/28 10:31:40;;;;;;;6.70;1.65;;;;;;;7.42;100.00;101207.47;5053586;28;20033;-81
2022/02/28 10:34:16;;;;;;;5.53;1.55;;;;;;;7.51;100.00;101234.34;5070979;28;20031;-83
2022/02/28 10:37:02;;;;;;;1.02;0.93;;;;;;;7.51;100.00;101245.06;5033305;28;20041;-80
2022/02/28 10:39:32;;;;;;;3.20;1.27;;;;;;;7.54;100.00;101256.34;5064263;28;20040;-81
2022/02/28 10:42:15;;;;;;;17.00;1.70;;;;;;;7.57;100.00;101242.66;5070475;28;20032;-81
2022/02/28 10:44:42;;;;;;;10.50;1.80;;;;;;;7.71;100.00;101250.22;5065667;28;20032;-83
2022/02/28 10:47:09;;;;;;;10.90;1.58;;;;;;;7.75;100.00;101244.56;5069656;28;20033;-81
2022/02/28 10:49:36;;;;;;;9.93;1.70;;;;;;;7.75;100.00;101255.28;5050048;28;20044;-81
2022/02/28 10:52:10;;;;;;;9.65;1.60;;;;;;;7.65;100.00;101240.09;5063794;28;20378;-81
2022/02/28 10:54:39;;;;;;;9.60;1.90;;;;;;;7.76;100.00;101257.00;5046259;28;20098;-81
2022/02/28 10:57:07;;;;;;;6.97;1.92;;;;;;;7.74;100.00;101265.16;5069939;28;20103;-82
2022/02/28 10:59:55;;;;;;;12.60;1.88;;;;;;;7.65;100.00;101250.81;5068918;28;21640;-81
2022/02/28 11:02:30;;;;;;;4.65;1.50;;;;;;;7.71;100.00;101266.28;5033602;28;20059;-81
2022/02/28 11:05:26;;;;;;;11.15;1.70;;;;;;;7.74;100.00;101275.03;5048225;28;20029;-81
2022/02/28 11:07:58;;;;;;;9.27;1.77;;;;;;;7.69;100.00;101283.47;5051481;28;20067;-82
2022/02/28 11:10:24;;;;;;;6.07;2.00;;;;;;;7.63;100.00;101289.41;5064288;28;20123;-81
2022/02/28 11:12:50;;;;;;;6.15;1.60;;;;;;;7.52;100.00;101298.44;5069062;28;20608;-81
2022/02/28 11:15:20;;;;;;;9.75;1.67;;;;;;;7.42;100.00;101287.75;5045706;28;20429;-82
2022/02/28 11:17:46;;;;;;;8.75;1.70;;;;;;;7.46;100.00;101299.00;5081604;28;20047;-82
2022/02/28 11:20:18;;;;;;;11.43;1.85;;;;;;;7.39;100.00;101295.22;5051486;28;20040;-78
2022/02/28 11:22:46;;;;;;;2.78;1.58;;;;;;;7.38;100.00;101315.78;5080142;28;20040;-83
2022/02/28 11:25:22;;;;;;;6.68;1.40;;;;;;;7.34;100.00;101326.91;5058443;28;20463;-81
2022/02/28 11:27:51;;;;;;;;;;;;;;;7.34;100.00;101326.91;5042960;28;20033;-83
2022/02/28 11:30:18;;;;;;;8.77;1.65;;;;;;;7.31;100.00;101338.72;5046048;28;19917;-80
2022/02/28 11:32:54;;;;;;;10.07;2.33;;;;;;;7.28;100.00;101331.00;5042917;28;20485;-80
2022/02/28 11:35:46;;;;;;;0.40;0.40;;;;;;;7.26;100.00;101332.94;5059892;28;20024;-83